Buffalo, WY

10:04 AM MST on December 21, 2014 (GMT -0700)
Esponda Ranch | Change Station
CLOSE
Current Station
Personal Weather Station
Location: Buffalo, WY
Elevation: 4665 ft
Nearby Weather Stations
Active Advisory: High Wind Watch

Elev 4665 ft 44.32 °N, 106.67 °W | Updated 7 minutes ago

Mostly Cloudy
Mostly Cloudy
43.3 °F
Feels Like 43 °F
N
2.0
Wind Variable Wind from NW
Gusts 2.0 mph

Today
High -- | Low -- °F
--% Chance of Precip.
Yesterday
High -- | Low -- °F
Precip. -- in
7:39 AM 4:30 PM
Waning Crescent, 0% visible
Pressure 29.47 in
Visibility 10.0 miles
Clouds Mostly Cloudy 7500 ft
Mostly Cloudy 9500 ft
Windchill 43 °F
Dew Point 32 °F
Humidity 65%
Rainfall 0.00 in
Snow Depth Not available.
UV 1 out of 12
Pollen .10 out of 12
Air Quality Not available.
Flu Activity Not available.
METAR KBYG 211653Z AUTO 10004KT 10SM BKN075 BKN095 08/M06 A2946 RMK AO2 SLP980 T00781056 $

More Conditions Fewer Conditions

Pressure 29.47 in
Visibility 10.0 miles
Clouds Mostly Cloudy 7500 ft
Mostly Cloudy 9500 ft
Windchill 43 °F
Dew Point 32 °F
Humidity 65%
Rainfall 0.00 in
Snow Depth Not available.
UV 1 out of 12
Pollen .10 out of 12
Air Quality Not available.
Flu Activity Not available.
METAR KBYG 211653Z AUTO 10004KT 10SM BKN075 BKN095 08/M06 A2946 RMK AO2 SLP980 T00781056 $

More Conditions Fewer Conditions

10-Day Weather Forecast

Almanac

Astronomy

Dec. 21, 2014 Rise Set
Actual Time
Civil Twilight
Nautical Twilight
Astronomical Twilight
Moon
Length of Visible Light
Length of Day
Tomorrow will be .
, % of the Moon is Illuminated

Today's Extremes

State Highs State Lows

Community

WunderPhotos

Upload Photos

1,779,441 photos uploaded!

WunderBlogs® & News

Nearby

Air Quality

  Air Quality AQ Index Pollutant
Not available.

Snow Depth

Station Depth Elevation

Earthquake Activity

City Distance Mag. Time & Date
Minimum magnitude displayed is 2.5.

Coastal Water Temperatures

Place Temperature

Nearby Weather Stations